sensor_id;sensor_type;location;lat;lon;timestamp;pressure;altitude;pressure_sealevel;temperature;humidity
59877;BME280;45749;51.140;17.184;2023-06-26T00:01:31;100202.59;;;18.16;79.42
59877;BME280;45749;51.140;17.184;2023-06-26T00:03:57;100195.94;;;18.12;79.32
59877;BME280;45749;51.140;17.184;2023-06-26T00:06:24;100200.63;;;18.10;79.81
59877;BME280;45749;51.140;17.184;2023-06-26T00:08:54;100199.09;;;18.08;79.97
59877;BME280;45749;51.140;17.184;2023-06-26T00:11:21;100197.59;;;18.05;80.01
59877;BME280;45749;51.140;17.184;2023-06-26T00:13:46;100188.25;;;18.01;79.93
59877;BME280;45749;51.140;17.184;2023-06-26T00:16:11;100191.75;;;18.01;80.24
59877;BME280;45749;51.140;17.184;2023-06-26T00:18:37;100173.50;;;17.89;80.44
59877;BME280;45749;51.140;17.184;2023-06-26T00:21:02;100189.72;;;17.95;80.30
59877;BME280;45749;51.140;17.184;2023-06-26T00:23:27;100198.88;;;17.93;80.19
59877;BME280;45749;51.140;17.184;2023-06-26T00:25:53;100195.69;;;17.89;80.49
59877;BME280;45749;51.140;17.184;2023-06-26T00:28:18;100192.38;;;17.87;80.63
59877;BME280;45749;51.140;17.184;2023-06-26T00:30:43;100195.19;;;17.86;80.96
59877;BME280;45749;51.140;17.184;2023-06-26T00:33:09;100193.00;;;17.81;80.61
59877;BME280;45749;51.140;17.184;2023-06-26T00:35:34;100184.31;;;17.79;80.67
59877;BME280;45749;51.140;17.184;2023-06-26T00:38:00;100181.50;;;17.80;81.09
59877;BME280;45749;51.140;17.184;2023-06-26T00:40:26;100175.25;;;17.72;80.89
59877;BME280;45749;51.140;17.184;2023-06-26T00:42:51;100175.44;;;17.70;80.69
59877;BME280;45749;51.140;17.184;2023-06-26T00:45:17;100175.06;;;17.65;81.20
59877;BME280;45749;51.140;17.184;2023-06-26T00:47:42;100182.75;;;17.68;81.19
59877;BME280;45749;51.140;17.184;2023-06-26T00:50:08;100171.19;;;17.59;81.26
59877;BME280;45749;51.140;17.184;2023-06-26T00:52:33;100173.22;;;17.57;81.81
59877;BME280;45749;51.140;17.184;2023-06-26T00:54:59;100168.34;;;17.53;81.62
59877;BME280;45749;51.140;17.184;2023-06-26T00:57:24;100163.31;;;17.50;81.89
59877;BME280;45749;51.140;17.184;2023-06-26T00:59:50;100170.34;;;17.51;81.70
59877;BME280;45749;51.140;17.184;2023-06-26T01:02:15;100169.66;;;17.49;81.99
59877;BME280;45749;51.140;17.184;2023-06-26T01:04:54;100161.63;;;17.41;81.87
59877;BME280;45749;51.140;17.184;2023-06-26T01:07:20;100176.47;;;17.43;82.28
59877;BME280;45749;51.140;17.184;2023-06-26T01:09:47;100173.97;;;17.42;81.77
59877;BME280;45749;51.140;17.184;2023-06-26T01:12:13;100165.97;;;17.42;81.84
59877;BME280;45749;51.140;17.184;2023-06-26T01:14:39;100160.13;;;17.38;81.85
59877;BME280;45749;51.140;17.184;2023-06-26T01:17:04;100167.63;;;17.43;81.72
59877;BME280;45749;51.140;17.184;2023-06-26T01:19:31;100162.09;;;17.36;82.21
59877;BME280;45749;51.140;17.184;2023-06-26T01:22:03;100175.13;;;17.39;82.41
59877;BME280;45749;51.140;17.184;2023-06-26T01:24:38;100163.75;;;17.37;82.42
59877;BME280;45749;51.140;17.184;2023-06-26T01:27:04;100167.22;;;17.29;82.63
59877;BME280;45749;51.140;17.184;2023-06-26T01:29:31;100145.81;;;17.13;82.63
59877;BME280;45749;51.140;17.184;2023-06-26T01:31:57;100157.00;;;17.17;82.55
59877;BME280;45749;51.140;17.184;2023-06-26T01:34:24;100146.59;;;17.05;82.96
59877;BME280;45749;51.140;17.184;2023-06-26T01:36:49;100141.59;;;17.02;82.72
59877;BME280;45749;51.140;17.184;2023-06-26T01:39:17;100141.72;;;17.01;82.62
59877;BME280;45749;51.140;17.184;2023-06-26T01:41:43;100163.81;;;17.11;82.80
59877;BME280;45749;51.140;17.184;2023-06-26T01:44:18;100155.13;;;17.09;82.77
59877;BME280;45749;51.140;17.184;2023-06-26T01:47:03;100160.78;;;17.06;83.20
59877;BME280;45749;51.140;17.184;2023-06-26T01:52:19;100154.53;;;16.97;83.49
59877;BME280;45749;51.140;17.184;2023-06-26T01:57:39;100120.16;;;16.68;83.65
59877;BME280;45749;51.140;17.184;2023-06-26T02:00:05;100125.19;;;16.71;83.78
59877;BME280;45749;51.140;17.184;2023-06-26T02:02:31;100151.31;;;16.85;83.78
59877;BME280;45749;51.140;17.184;2023-06-26T02:04:56;100142.81;;;16.82;83.64
59877;BME280;45749;51.140;17.184;2023-06-26T02:07:22;100142.09;;;16.80;83.98
59877;BME280;45749;51.140;17.184;2023-06-26T02:09:47;100117.16;;;16.63;83.84
59877;BME280;45749;51.140;17.184;2023-06-26T02:12:12;100128.50;;;16.65;84.15
59877;BME280;45749;51.140;17.184;2023-06-26T02:14:38;100110.09;;;16.54;83.92
59877;BME280;45749;51.140;17.184;2023-06-26T02:17:04;100147.66;;;16.69;84.29
59877;BME280;45749;51.140;17.184;2023-06-26T02:19:29;100128.72;;;16.54;84.29
59877;BME280;45749;51.140;17.184;2023-06-26T02:21:55;100118.25;;;16.52;84.24
59877;BME280;45749;51.140;17.184;2023-06-26T02:24:20;100140.44;;;16.61;84.29
59877;BME280;45749;51.140;17.184;2023-06-26T02:26:45;100139.38;;;16.54;84.27
59877;BME280;45749;51.140;17.184;2023-06-26T02:29:11;100138.75;;;16.60;84.29
59877;BME280;45749;51.140;17.184;2023-06-26T02:31:37;100138.69;;;16.52;84.13
59877;BME280;45749;51.140;17.184;2023-06-26T02:34:03;100142.44;;;16.59;84.39
59877;BME280;45749;51.140;17.184;2023-06-26T02:36:28;100153.91;;;16.59;84.50
59877;BME280;45749;51.140;17.184;2023-06-26T02:38:53;100149.03;;;16.55;84.56
59877;BME280;45749;51.140;17.184;2023-06-26T02:41:18;100128.59;;;16.37;84.52
59877;BME280;45749;51.140;17.184;2023-06-26T02:43:44;100111.03;;;16.27;84.77
59877;BME280;45749;51.140;17.184;2023-06-26T02:46:09;100116.38;;;16.27;84.97
59877;BME280;45749;51.140;17.184;2023-06-26T02:48:34;100135.06;;;16.35;84.63
59877;BME280;45749;51.140;17.184;2023-06-26T02:51:00;100147.22;;;16.37;85.12
59877;BME280;45749;51.140;17.184;2023-06-26T02:53:25;100127.72;;;16.29;85.08
59877;BME280;45749;51.140;17.184;2023-06-26T02:55:50;100145.69;;;16.35;85.40
59877;BME280;45749;51.140;17.184;2023-06-26T02:58:16;100146.56;;;16.35;85.14
59877;BME280;45749;51.140;17.184;2023-06-26T03:00:41;100154.91;;;16.40;85.63
59877;BME280;45749;51.140;17.184;2023-06-26T03:03:07;100143.22;;;16.33;85.05
59877;BME280;45749;51.140;17.184;2023-06-26T03:05:33;100150.41;;;16.41;85.26
59877;BME280;45749;51.140;17.184;2023-06-26T03:07:58;100112.13;;;16.16;85.51
59877;BME280;45749;51.140;17.184;2023-06-26T03:10:23;100133.88;;;16.29;85.39
59877;BME280;45749;51.140;17.184;2023-06-26T03:12:49;100144.03;;;16.34;85.16
59877;BME280;45749;51.140;17.184;2023-06-26T03:15:14;100131.13;;;16.39;85.61
59877;BME280;45749;51.140;17.184;2023-06-26T03:17:40;100150.28;;;16.42;85.38
59877;BME280;45749;51.140;17.184;2023-06-26T03:20:06;100137.28;;;16.39;85.63
59877;BME280;45749;51.140;17.184;2023-06-26T03:22:32;100128.69;;;16.28;85.83
59877;BME280;45749;51.140;17.184;2023-06-26T03:24:58;100131.50;;;16.26;86.24
59877;BME280;45749;51.140;17.184;2023-06-26T03:27:23;100140.91;;;16.38;86.59
59877;BME280;45749;51.140;17.184;2023-06-26T03:29:48;100121.75;;;16.35;86.23
59877;BME280;45749;51.140;17.184;2023-06-26T03:32:13;100118.25;;;16.34;85.95
59877;BME280;45749;51.140;17.184;2023-06-26T03:34:39;100087.00;;;16.18;86.03
59877;BME280;45749;51.140;17.184;2023-06-26T03:37:04;100134.53;;;16.49;85.97
59877;BME280;45749;51.140;17.184;2023-06-26T03:39:30;100130.56;;;16.53;86.09
59877;BME280;45749;51.140;17.184;2023-06-26T03:41:55;100108.66;;;16.41;85.96
59877;BME280;45749;51.140;17.184;2023-06-26T03:44:22;100113.84;;;16.43;86.67
59877;BME280;45749;51.140;17.184;2023-06-26T03:46:47;100128.94;;;16.60;86.78
59877;BME280;45749;51.140;17.184;2023-06-26T03:49:12;100116.09;;;16.56;86.82
59877;BME280;45749;51.140;17.184;2023-06-26T03:51:38;100127.50;;;16.66;86.65
59877;BME280;45749;51.140;17.184;2023-06-26T03:54:04;100133.34;;;16.70;86.56
59877;BME280;45749;51.140;17.184;2023-06-26T03:56:29;100108.94;;;16.56;86.74
59877;BME280;45749;51.140;17.184;2023-06-26T03:58:54;100103.44;;;16.58;87.28
59877;BME280;45749;51.140;17.184;2023-06-26T04:01:20;100096.47;;;16.57;87.05
59877;BME280;45749;51.140;17.184;2023-06-26T04:03:46;100126.44;;;16.77;87.72
59877;BME280;45749;51.140;17.184;2023-06-26T04:06:12;100118.06;;;16.72;86.88
59877;BME280;45749;51.140;17.184;2023-06-26T04:08:37;100132.44;;;16.79;87.96
59877;BME280;45749;51.140;17.184;2023-06-26T04:11:02;100103.13;;;16.61;88.10
59877;BME280;45749;51.140;17.184;2023-06-26T04:13:27;100095.84;;;16.63;88.06
59877;BME280;45749;51.140;17.184;2023-06-26T04:15:53;100106.31;;;16.64;88.45
59877;BME280;45749;51.140;17.184;2023-06-26T04:18:18;100124.28;;;16.80;88.63
59877;BME280;45749;51.140;17.184;2023-06-26T04:21:07;100125.81;;;16.83;88.75
59877;BME280;45749;51.140;17.184;2023-06-26T04:23:33;100126.63;;;16.83;88.61
59877;BME280;45749;51.140;17.184;2023-06-26T04:25:59;100128.31;;;16.84;89.24
59877;BME280;45749;51.140;17.184;2023-06-26T04:28:24;100091.19;;;16.65;89.58
59877;BME280;45749;51.140;17.184;2023-06-26T04:30:50;100114.47;;;16.81;89.87
59877;BME280;45749;51.140;17.184;2023-06-26T04:33:15;100110.63;;;16.75;90.46
59877;BME280;45749;51.140;17.184;2023-06-26T04:35:41;100126.19;;;16.88;90.04
59877;BME280;45749;51.140;17.184;2023-06-26T04:38:07;100119.38;;;16.94;90.53
59877;BME280;45749;51.140;17.184;2023-06-26T04:40:32;100117.22;;;16.97;90.19
59877;BME280;45749;51.140;17.184;2023-06-26T04:42:57;100095.03;;;16.88;91.28
59877;BME280;45749;51.140;17.184;2023-06-26T04:45:22;100111.25;;;17.03;90.58
59877;BME280;45749;51.140;17.184;2023-06-26T04:47:48;100116.16;;;17.08;91.33
59877;BME280;45749;51.140;17.184;2023-06-26T04:50:13;100090.06;;;16.94;91.24
59877;BME280;45749;51.140;17.184;2023-06-26T04:52:39;100093.09;;;16.99;91.83
59877;BME280;45749;51.140;17.184;2023-06-26T04:55:04;100109.81;;;17.09;92.13
59877;BME280;45749;51.140;17.184;2023-06-26T04:57:29;100091.47;;;17.06;91.79
59877;BME280;45749;51.140;17.184;2023-06-26T04:59:55;100089.94;;;17.03;92.26
59877;BME280;45749;51.140;17.184;2023-06-26T05:02:20;100078.81;;;17.08;92.64
59877;BME280;45749;51.140;17.184;2023-06-26T05:04:45;100093.84;;;17.17;92.88
59877;BME280;45749;51.140;17.184;2023-06-26T05:07:12;100113.94;;;17.38;92.13
59877;BME280;45749;51.140;17.184;2023-06-26T05:09:37;100090.59;;;17.31;93.26
59877;BME280;45749;51.140;17.184;2023-06-26T05:12:04;100099.44;;;17.40;93.62
59877;BME280;45749;51.140;17.184;2023-06-26T05:14:29;100108.00;;;17.52;94.08
59877;BME280;45749;51.140;17.184;2023-06-26T05:16:55;100110.84;;;17.58;94.91
59877;BME280;45749;51.140;17.184;2023-06-26T05:19:20;100099.81;;;17.53;94.90
59877;BME280;45749;51.140;17.184;2023-06-26T05:21:45;100118.91;;;17.75;94.76
59877;BME280;45749;51.140;17.184;2023-06-26T05:24:12;100119.25;;;17.80;94.54
59877;BME280;45749;51.140;17.184;2023-06-26T05:26:38;100112.94;;;17.81;94.31
59877;BME280;45749;51.140;17.184;2023-06-26T05:29:04;100105.59;;;17.83;93.98
59877;BME280;45749;51.140;17.184;2023-06-26T05:31:32;100097.13;;;17.88;94.07
59877;BME280;45749;51.140;17.184;2023-06-26T05:34:00;100116.34;;;18.08;93.95
59877;BME280;45749;51.140;17.184;2023-06-26T05:36:27;100077.28;;;17.90;93.30
59877;BME280;45749;51.140;17.184;2023-06-26T05:38:54;100110.84;;;18.17;92.63
59877;BME280;45749;51.140;17.184;2023-06-26T05:41:21;100088.47;;;18.10;92.62
59877;BME280;45749;51.140;17.184;2023-06-26T05:43:47;100094.97;;;18.32;91.98
59877;BME280;45749;51.140;17.184;2023-06-26T05:46:12;100077.94;;;18.25;92.17
59877;BME280;45749;51.140;17.184;2023-06-26T05:48:38;100083.13;;;18.35;92.20
59877;BME280;45749;51.140;17.184;2023-06-26T05:51:04;100067.59;;;18.38;92.54
59877;BME280;45749;51.140;17.184;2023-06-26T05:53:30;100074.78;;;18.46;93.62
59877;BME280;45749;51.140;17.184;2023-06-26T05:55:56;100086.28;;;18.63;93.42
59877;BME280;45749;51.140;17.184;2023-06-26T05:58:23;100069.09;;;18.57;93.63
59877;BME280;45749;51.140;17.184;2023-06-26T06:00:49;100082.75;;;18.70;93.20
59877;BME280;45749;51.140;17.184;2023-06-26T06:03:14;100092.13;;;18.83;92.48
59877;BME280;45749;51.140;17.184;2023-06-26T06:05:39;100091.59;;;18.95;92.22
59877;BME280;45749;51.140;17.184;2023-06-26T06:08:05;100092.72;;;19.01;91.98
59877;BME280;45749;51.140;17.184;2023-06-26T06:10:30;100058.69;;;18.87;91.63
59877;BME280;45749;51.140;17.184;2023-06-26T06:12:55;100082.19;;;19.08;92.12
59877;BME280;45749;51.140;17.184;2023-06-26T06:15:21;100097.03;;;19.18;91.62
59877;BME280;45749;51.140;17.184;2023-06-26T06:17:46;100088.34;;;19.16;90.97
59877;BME280;45749;51.140;17.184;2023-06-26T06:20:11;100102.50;;;19.33;91.35
59877;BME280;45749;51.140;17.184;2023-06-26T06:22:37;100081.63;;;19.29;91.55
59877;BME280;45749;51.140;17.184;2023-06-26T06:25:02;100097.13;;;19.41;91.11
59877;BME280;45749;51.140;17.184;2023-06-26T06:27:27;100087.75;;;19.37;91.43
59877;BME280;45749;51.140;17.184;2023-06-26T06:29:53;100089.72;;;19.52;91.15
59877;BME280;45749;51.140;17.184;2023-06-26T06:32:18;100092.88;;;19.55;91.12
59877;BME280;45749;51.140;17.184;2023-06-26T06:34:44;100093.00;;;19.62;90.84
59877;BME280;45749;51.140;17.184;2023-06-26T06:37:09;100099.81;;;19.73;90.82
59877;BME280;45749;51.140;17.184;2023-06-26T06:39:34;100100.63;;;19.81;91.17
59877;BME280;45749;51.140;17.184;2023-06-26T06:42:00;100111.75;;;19.93;90.33
59877;BME280;45749;51.140;17.184;2023-06-26T06:44:25;100106.50;;;20.00;90.25
59877;BME280;45749;51.140;17.184;2023-06-26T06:46:50;100104.44;;;20.10;89.56
59877;BME280;45749;51.140;17.184;2023-06-26T06:49:16;100115.25;;;20.17;88.63
59877;BME280;45749;51.140;17.184;2023-06-26T06:51:41;100087.53;;;20.09;88.36
59877;BME280;45749;51.140;17.184;2023-06-26T06:54:06;100079.13;;;20.12;88.56
59877;BME280;45749;51.140;17.184;2023-06-26T06:56:32;100100.84;;;20.41;89.08
59877;BME280;45749;51.140;17.184;2023-06-26T06:58:57;100095.50;;;20.41;88.36
59877;BME280;45749;51.140;17.184;2023-06-26T07:01:22;100098.91;;;20.49;88.35
59877;BME280;45749;51.140;17.184;2023-06-26T07:03:48;100073.81;;;20.50;87.91
59877;BME280;45749;51.140;17.184;2023-06-26T07:06:13;100095.28;;;20.65;88.25
59877;BME280;45749;51.140;17.184;2023-06-26T07:08:38;100062.56;;;20.55;87.75
59877;BME280;45749;51.140;17.184;2023-06-26T07:11:04;100053.59;;;20.63;87.35
59877;BME280;45749;51.140;17.184;2023-06-26T07:13:29;100078.59;;;20.78;87.38
59877;BME280;45749;51.140;17.184;2023-06-26T07:15:54;100085.44;;;20.95;86.08
59877;BME280;45749;51.140;17.184;2023-06-26T07:18:20;100076.75;;;20.93;86.36
59877;BME280;45749;51.140;17.184;2023-06-26T07:20:45;100088.13;;;21.10;85.77
59877;BME280;45749;51.140;17.184;2023-06-26T07:23:10;100092.56;;;21.18;86.14
59877;BME280;45749;51.140;17.184;2023-06-26T07:25:36;100059.63;;;21.09;84.54
59877;BME280;45749;51.140;17.184;2023-06-26T07:28:01;100060.34;;;21.18;85.30
59877;BME280;45749;51.140;17.184;2023-06-26T07:30:27;100090.16;;;21.38;85.60
59877;BME280;45749;51.140;17.184;2023-06-26T07:32:52;100059.63;;;21.24;84.44
59877;BME280;45749;51.140;17.184;2023-06-26T07:35:18;100062.50;;;21.37;85.11
59877;BME280;45749;51.140;17.184;2023-06-26T07:37:43;100068.59;;;21.46;84.22
59877;BME280;45749;51.140;17.184;2023-06-26T07:40:09;100049.91;;;21.38;83.47
59877;BME280;45749;51.140;17.184;2023-06-26T07:42:35;100085.38;;;21.69;83.55
59877;BME280;45749;51.140;17.184;2023-06-26T07:45:00;100051.53;;;21.53;83.37
59877;BME280;45749;51.140;17.184;2023-06-26T07:47:26;100058.47;;;21.63;81.88
59877;BME280;45749;51.140;17.184;2023-06-26T07:49:51;100089.50;;;21.87;81.22
59877;BME280;45749;51.140;17.184;2023-06-26T07:52:18;100072.34;;;21.88;81.36
59877;BME280;45749;51.140;17.184;2023-06-26T07:54:43;100058.84;;;21.81;82.38
59877;BME280;45749;51.140;17.184;2023-06-26T07:57:09;100051.22;;;21.85;83.56
59877;BME280;45749;51.140;17.184;2023-06-26T07:59:36;100053.59;;;21.94;80.48
59877;BME280;45749;51.140;17.184;2023-06-26T08:02:01;100056.19;;;22.02;82.00
59877;BME280;45749;51.140;17.184;2023-06-26T08:04:28;100049.38;;;22.07;81.22
59877;BME280;45749;51.140;17.184;2023-06-26T08:06:56;100083.16;;;22.37;79.68
59877;BME280;45749;51.140;17.184;2023-06-26T08:09:23;100042.22;;;22.14;79.54
59877;BME280;45749;51.140;17.184;2023-06-26T08:11:49;100048.16;;;22.31;81.03
59877;BME280;45749;51.140;17.184;2023-06-26T08:14:15;100054.69;;;22.43;78.88
59877;BME280;45749;51.140;17.184;2023-06-26T08:16:42;100053.09;;;22.48;77.88
59877;BME280;45749;51.140;17.184;2023-06-26T08:19:08;100080.56;;;22.72;77.90
59877;BME280;45749;51.140;17.184;2023-06-26T08:21:33;100077.69;;;22.80;77.99
59877;BME280;45749;51.140;17.184;2023-06-26T08:23:59;100068.06;;;22.92;78.06
59877;BME280;45749;51.140;17.184;2023-06-26T08:26:24;100067.94;;;23.01;78.21
59877;BME280;45749;51.140;17.184;2023-06-26T08:28:49;100076.25;;;23.12;77.27
59877;BME280;45749;51.140;17.184;2023-06-26T08:31:16;100060.94;;;23.13;77.32
59877;BME280;45749;51.140;17.184;2023-06-26T08:33:41;100075.53;;;23.32;76.05
59877;BME280;45749;51.140;17.184;2023-06-26T08:36:07;100075.97;;;23.35;76.43
59877;BME280;45749;51.140;17.184;2023-06-26T08:38:32;100063.91;;;23.25;75.45
59877;BME280;45749;51.140;17.184;2023-06-26T08:40:58;100035.28;;;23.10;75.10
59877;BME280;45749;51.140;17.184;2023-06-26T08:43:24;100035.94;;;23.19;75.57
59877;BME280;45749;51.140;17.184;2023-06-26T08:45:51;100072.91;;;23.45;75.37
59877;BME280;45749;51.140;17.184;2023-06-26T08:48:17;100067.09;;;23.48;75.08
59877;BME280;45749;51.140;17.184;2023-06-26T08:50:44;100061.97;;;23.60;76.07
59877;BME280;45749;51.140;17.184;2023-06-26T08:53:22;100063.66;;;23.68;74.86
59877;BME280;45749;51.140;17.184;2023-06-26T08:55:49;100045.00;;;23.66;74.07
59877;BME280;45749;51.140;17.184;2023-06-26T08:58:17;100050.22;;;23.74;72.42
59877;BME280;45749;51.140;17.184;2023-06-26T09:00:42;100055.22;;;23.84;73.12
59877;BME280;45749;51.140;17.184;2023-06-26T09:03:09;100059.38;;;23.93;70.81
59877;BME280;45749;51.140;17.184;2023-06-26T09:05:34;100044.69;;;23.96;71.77
59877;BME280;45749;51.140;17.184;2023-06-26T09:08:00;100048.81;;;23.98;72.00
59877;BME280;45749;51.140;17.184;2023-06-26T09:10:26;100049.44;;;24.07;72.61
59877;BME280;45749;51.140;17.184;2023-06-26T09:12:55;100058.78;;;24.11;71.10
59877;BME280;45749;51.140;17.184;2023-06-26T09:15:21;100057.31;;;24.22;71.65
59877;BME280;45749;51.140;17.184;2023-06-26T09:17:48;100046.13;;;24.31;71.23
59877;BME280;45749;51.140;17.184;2023-06-26T09:20:13;100042.19;;;24.34;70.43
59877;BME280;45749;51.140;17.184;2023-06-26T09:22:41;100043.69;;;24.43;71.11
59877;BME280;45749;51.140;17.184;2023-06-26T09:25:08;100038.69;;;24.47;69.90
59877;BME280;45749;51.140;17.184;2023-06-26T09:27:35;100035.97;;;24.60;68.01
59877;BME280;45749;51.140;17.184;2023-06-26T09:30:02;100035.13;;;24.66;69.53
59877;BME280;45749;51.140;17.184;2023-06-26T09:32:28;100044.25;;;24.78;69.50
59877;BME280;45749;51.140;17.184;2023-06-26T09:34:53;100037.78;;;24.93;69.65
59877;BME280;45749;51.140;17.184;2023-06-26T09:37:22;100037.34;;;25.02;68.87
59877;BME280;45749;51.140;17.184;2023-06-26T09:39:48;100031.50;;;25.06;67.40
59877;BME280;45749;51.140;17.184;2023-06-26T09:42:14;100033.56;;;25.10;68.22
59877;BME280;45749;51.140;17.184;2023-06-26T09:44:47;100022.56;;;25.18;65.81
59877;BME280;45749;51.140;17.184;2023-06-26T09:47:16;100027.72;;;25.26;67.34
59877;BME280;45749;51.140;17.184;2023-06-26T09:49:43;100011.50;;;25.26;67.45
59877;BME280;45749;51.140;17.184;2023-06-26T09:52:08;100012.50;;;25.39;66.19
59877;BME280;45749;51.140;17.184;2023-06-26T09:54:34;100027.16;;;25.56;64.67
59877;BME280;45749;51.140;17.184;2023-06-26T09:57:07;100026.47;;;25.67;64.38
59877;BME280;45749;51.140;17.184;2023-06-26T09:59:33;100022.03;;;25.73;64.64
59877;BME280;45749;51.140;17.184;2023-06-26T10:01:59;100003.31;;;25.78;64.01
59877;BME280;45749;51.140;17.184;2023-06-26T10:04:25;100013.19;;;25.98;62.76
59877;BME280;45749;51.140;17.184;2023-06-26T10:06:51;100018.16;;;26.01;63.95
59877;BME280;45749;51.140;17.184;2023-06-26T10:09:19;100011.22;;;26.11;64.18
59877;BME280;45749;51.140;17.184;2023-06-26T10:12:02;100012.16;;;26.24;63.09
59877;BME280;45749;51.140;17.184;2023-06-26T10:14:36;100011.72;;;26.27;61.07
59877;BME280;45749;51.140;17.184;2023-06-26T10:17:15;100007.75;;;26.29;61.21
59877;BME280;45749;51.140;17.184;2023-06-26T10:19:43;100015.56;;;26.37;61.95
59877;BME280;45749;51.140;17.184;2023-06-26T10:22:11;100009.03;;;26.45;63.04
59877;BME280;45749;51.140;17.184;2023-06-26T10:24:40;100001.25;;;26.55;60.80
59877;BME280;45749;51.140;17.184;2023-06-26T10:27:25;100004.44;;;26.71;59.91
59877;BME280;45749;51.140;17.184;2023-06-26T10:29:54;99997.88;;;26.78;59.98
59877;BME280;45749;51.140;17.184;2023-06-26T10:32:21;100002.19;;;26.86;59.65
59877;BME280;45749;51.140;17.184;2023-06-26T10:34:48;99997.16;;;26.89;58.35
59877;BME280;45749;51.140;17.184;2023-06-26T10:37:14;99993.16;;;26.92;59.42
59877;BME280;45749;51.140;17.184;2023-06-26T10:39:46;99993.09;;;26.99;58.76
59877;BME280;45749;51.140;17.184;2023-06-26T10:42:18;99995.72;;;27.05;58.72
59877;BME280;45749;51.140;17.184;2023-06-26T10:44:45;99991.25;;;27.11;58.46
59877;BME280;45749;51.140;17.184;2023-06-26T10:47:13;99989.56;;;27.17;58.98
59877;BME280;45749;51.140;17.184;2023-06-26T10:49:53;99987.44;;;27.19;59.42
59877;BME280;45749;51.140;17.184;2023-06-26T10:52:19;99992.53;;;27.27;58.00
59877;BME280;45749;51.140;17.184;2023-06-26T10:54:44;99989.38;;;27.30;57.07
59877;BME280;45749;51.140;17.184;2023-06-26T10:57:10;100000.94;;;27.37;57.88
59877;BME280;45749;51.140;17.184;2023-06-26T10:59:39;99976.56;;;27.37;58.20
59877;BME280;45749;51.140;17.184;2023-06-26T11:02:05;99992.06;;;27.48;57.79
59877;BME280;45749;51.140;17.184;2023-06-26T11:04:38;99985.66;;;27.43;57.36
59877;BME280;45749;51.140;17.184;2023-06-26T11:07:20;99978.59;;;27.42;59.90
59877;BME280;45749;51.140;17.184;2023-06-26T11:12:40;99977.38;;;27.38;57.17
59877;BME280;45749;51.140;17.184;2023-06-26T11:15:10;99979.72;;;27.34;56.80
59877;BME280;45749;51.140;17.184;2023-06-26T11:17:36;99978.41;;;27.25;56.52
59877;BME280;45749;51.140;17.184;2023-06-26T11:20:04;99972.84;;;27.20;56.27
59877;BME280;45749;51.140;17.184;2023-06-26T11:22:31;99973.38;;;27.28;57.87
59877;BME280;45749;51.140;17.184;2023-06-26T11:24:59;99973.84;;;27.37;56.45
59877;BME280;45749;51.140;17.184;2023-06-26T11:29:58;99957.88;;;27.47;55.92
59877;BME280;45749;51.140;17.184;2023-06-26T11:32:26;99961.06;;;27.56;57.14
59877;BME280;45749;51.140;17.184;2023-06-26T11:34:51;99952.84;;;27.63;56.80
59877;BME280;45749;51.140;17.184;2023-06-26T11:37:17;99954.03;;;27.67;55.64
59877;BME280;45749;51.140;17.184;2023-06-26T11:39:42;99945.44;;;27.70;55.75
59877;BME280;45749;51.140;17.184;2023-06-26T11:42:08;99943.47;;;27.77;54.59
59877;BME280;45749;51.140;17.184;2023-06-26T11:44:40;99947.38;;;27.81;54.97
59877;BME280;45749;51.140;17.184;2023-06-26T11:47:06;99947.13;;;27.82;54.53
59877;BME280;45749;51.140;17.184;2023-06-26T11:49:32;99944.44;;;27.82;53.57
59877;BME280;45749;51.140;17.184;2023-06-26T11:51:57;99935.47;;;27.82;53.90
59877;BME280;45749;51.140;17.184;2023-06-26T11:54:24;99935.47;;;27.82;53.19
59877;BME280;45749;51.140;17.184;2023-06-26T11:56:57;99927.47;;;27.87;53.17
59877;BME280;45749;51.140;17.184;2023-06-26T11:59:24;99936.88;;;27.96;53.52
59877;BME280;45749;51.140;17.184;2023-06-26T12:01:50;99923.59;;;27.95;52.60
59877;BME280;45749;51.140;17.184;2023-06-26T12:04:19;99926.19;;;28.01;53.65
59877;BME280;45749;51.140;17.184;2023-06-26T12:06:47;99924.16;;;28.09;54.12
59877;BME280;45749;51.140;17.184;2023-06-26T12:09:14;99924.41;;;28.19;54.49
59877;BME280;45749;51.140;17.184;2023-06-26T12:11:43;99919.56;;;28.21;52.32
59877;BME280;45749;51.140;17.184;2023-06-26T12:14:10;99923.09;;;28.21;52.04
59877;BME280;45749;51.140;17.184;2023-06-26T12:16:36;99916.16;;;28.14;51.92
59877;BME280;45749;51.140;17.184;2023-06-26T12:19:03;99912.59;;;28.13;52.12
59877;BME280;45749;51.140;17.184;2023-06-26T12:24:13;99911.53;;;28.26;52.61
59877;BME280;45749;51.140;17.184;2023-06-26T12:26:41;99900.81;;;28.31;51.42
59877;BME280;45749;51.140;17.184;2023-06-26T12:29:10;99893.50;;;28.32;52.45
59877;BME280;45749;51.140;17.184;2023-06-26T12:31:40;99892.75;;;28.36;53.41
59877;BME280;45749;51.140;17.184;2023-06-26T12:34:13;99890.19;;;28.41;51.54
59877;BME280;45749;51.140;17.184;2023-06-26T12:36:50;99896.22;;;28.43;52.58
59877;BME280;45749;51.140;17.184;2023-06-26T12:39:17;99900.44;;;28.51;52.43
59877;BME280;45749;51.140;17.184;2023-06-26T12:41:54;99899.16;;;28.54;51.31
59877;BME280;45749;51.140;17.184;2023-06-26T12:44:28;99894.78;;;28.52;50.49
59877;BME280;45749;51.140;17.184;2023-06-26T12:46:58;99891.50;;;28.50;51.27
59877;BME280;45749;51.140;17.184;2023-06-26T12:49:37;99894.53;;;28.54;50.45
59877;BME280;45749;51.140;17.184;2023-06-26T12:52:09;99888.53;;;28.52;50.13
59877;BME280;45749;51.140;17.184;2023-06-26T12:54:36;99889.59;;;28.51;50.18